Time;durP1;ratioP1;P1;durP2;ratioP2;P2;SDS_P1;SDS_P2;PMS_P1;PMS_P2;Temp;Humidity;BMP_temperature;BMP_pressure;BME280_temperature;BME280_humidity;BME280_pressure;Samples;Min_cycle;Max_cycle;Signal;HPM_P1;HPM_P2
2022/01/10 00:02:07;;;;;;;24.87;10.90;;;2.80;99.90;;;;;;4931143;29;20032;-89
2022/01/10 00:04:33;;;;;;;25.97;10.77;;;2.80;99.90;;;;;;4931461;29;20032;-89
2022/01/10 00:06:59;;;;;;;23.70;10.20;;;2.80;99.90;;;;;;4931233;29;20513;-89
2022/01/10 00:09:25;;;;;;;24.20;10.60;;;2.80;99.90;;;;;;4930576;29;20040;-89
2022/01/10 00:11:50;;;;;;;23.70;10.67;;;2.80;99.90;;;;;;4931089;29;20063;-89
2022/01/10 00:14:16;;;;;;;24.57;10.13;;;2.80;99.90;;;;;;4931083;29;20036;-89
2022/01/10 00:16:42;;;;;;;22.77;10.57;;;2.80;99.90;;;;;;4931196;29;20502;-88
2022/01/10 00:19:07;;;;;;;30.87;11.20;;;2.90;99.90;;;;;;4914782;29;20028;-89
2022/01/10 00:21:33;;;;;;;25.40;11.33;;;2.90;99.90;;;;;;4930685;29;20032;-89
2022/01/10 00:23:59;;;;;;;26.80;11.53;;;2.90;99.90;;;;;;4930967;29;20032;-88
2022/01/10 00:26:25;;;;;;;26.03;11.53;;;2.90;99.90;;;;;;4931009;29;20032;-88
2022/01/10 00:28:51;;;;;;;26.03;11.57;;;2.70;99.90;;;;;;4914584;29;20035;-88
2022/01/10 00:31:16;;;;;;;23.67;10.97;;;2.70;99.90;;;;;;4930485;29;20032;-89
2022/01/10 00:33:42;;;;;;;20.97;10.77;;;2.70;99.90;;;;;;4931106;29;20422;-88
2022/01/10 00:36:08;;;;;;;22.67;10.67;;;2.70;99.90;;;;;;4930785;29;20024;-88
2022/01/10 00:38:34;;;;;;;24.30;12.23;;;2.80;99.90;;;;;;4930394;29;20031;-89
2022/01/10 00:41:00;;;;;;;24.03;11.03;;;2.70;99.90;;;;;;4914664;29;20028;-89
2022/01/10 00:43:34;;;;;;;30.33;11.70;;;2.70;99.90;;;;;;4914810;29;20123;-89
2022/01/10 00:46:02;;;;;;;22.40;10.93;;;2.60;99.90;;;;;;4930804;29;20122;-89
2022/01/10 00:48:28;;;;;;;24.97;10.67;;;2.60;99.90;;;;;;4930095;29;20084;-89
2022/01/10 00:50:54;;;;;;;25.30;10.30;;;2.60;99.90;;;;;;4930402;29;20036;-89
2022/01/10 00:53:19;;;;;;;20.60;10.77;;;2.50;99.90;;;;;;4930745;29;20032;-89
2022/01/10 00:55:46;;;;;;;23.87;10.30;;;2.50;99.90;;;;;;4930414;29;20224;-89
2022/01/10 00:58:12;;;;;;;27.03;10.87;;;2.50;99.90;;;;;;4930069;29;20032;-89
2022/01/10 01:00:38;;;;;;;21.23;9.87;;;2.50;99.90;;;;;;4930422;29;20042;-89
2022/01/10 01:03:04;;;;;;;20.40;10.47;;;2.50;99.90;;;;;;4930387;29;20029;-88
2022/01/10 01:05:33;;;;;;;22.53;10.30;;;2.50;99.90;;;;;;4930507;29;20036;-89
2022/01/10 01:08:01;;;;;;;24.65;10.73;;;2.50;99.90;;;;;;4929927;29;20040;-88
2022/01/10 01:15:30;;;;;;;20.57;10.17;;;2.60;99.90;;;;;;4934309;29;20036;-89
2022/01/10 01:25:56;;;;;;;26.87;10.37;;;2.60;99.90;;;;;;4918344;29;20123;-89
2022/01/10 01:28:22;;;;;;;28.67;10.73;;;2.60;99.90;;;;;;4933692;29;20067;-89
2022/01/10 01:30:48;;;;;;;19.50;10.13;;;2.60;99.90;;;;;;4933674;29;20117;-89
2022/01/10 01:33:15;;;;;;;23.27;10.00;;;2.70;99.90;;;;;;4933861;29;20043;-89
2022/01/10 01:35:41;;;;;;;24.90;10.50;;;2.70;99.90;;;;;;4918090;29;20466;-89
2022/01/10 01:38:07;;;;;;;23.43;9.90;;;2.60;99.90;;;;;;4933267;29;20063;-89
2022/01/10 01:40:40;;;;;;;20.63;11.03;;;2.60;99.90;;;;;;4919041;29;20028;-89
2022/01/10 01:43:06;;;;;;;21.70;10.57;;;2.50;99.90;;;;;;4933629;29;20028;-89
2022/01/10 01:45:41;;;;;;;23.73;10.70;;;2.50;99.90;;;;;;4934172;29;20457;-89
2022/01/10 01:48:07;;;;;;;22.43;10.77;;;2.50;99.90;;;;;;4933948;29;20036;-88
2022/01/10 01:50:33;;;;;;;24.63;10.20;;;2.50;99.90;;;;;;4917897;29;20032;-88
2022/01/10 01:53:00;;;;;;;21.77;10.40;;;2.50;99.90;;;;;;4933771;29;20488;-90
2022/01/10 01:55:25;;;;;;;22.50;10.20;;;2.50;99.90;;;;;;4933473;29;20120;-88
2022/01/10 01:57:51;;;;;;;24.77;10.23;;;2.40;99.90;;;;;;4933932;29;20179;-88
2022/01/10 02:00:22;;;;;;;23.47;10.13;;;2.40;99.90;;;;;;4933826;29;20471;-88
2022/01/10 02:02:51;;;;;;;26.83;9.80;;;2.40;99.90;;;;;;4933339;29;20391;-89
2022/01/10 02:05:18;;;;;;;25.47;10.43;;;2.40;99.90;;;;;;4933557;29;20044;-88
2022/01/10 02:07:44;;;;;;;23.97;10.30;;;2.40;99.90;;;;;;4933544;29;20032;-88
2022/01/10 02:10:12;;;;;;;22.90;10.13;;;2.40;99.90;;;;;;4933484;29;20459;-89
2022/01/10 02:12:38;;;;;;;26.97;11.57;;;2.30;99.90;;;;;;4933482;29;20556;-89
2022/01/10 02:15:50;;;;;;;21.17;10.73;;;2.30;99.90;;;;;;4933477;29;20028;-88
2022/01/10 02:18:19;;;;;;;22.75;11.00;;;2.20;99.90;;;;;;4933013;29;20028;-88
2022/01/10 02:20:49;;;;;;;25.90;11.43;;;2.30;99.90;;;;;;4932314;29;20059;-88
2022/01/10 02:23:17;;;;;;;26.30;11.40;;;2.30;99.90;;;;;;4917391;29;20028;-88
2022/01/10 02:26:09;;;;;;;27.63;11.33;;;2.30;99.90;;;;;;4927204;29;20064;-89
2022/01/10 02:28:38;;;;;;;22.20;10.82;;;2.20;99.90;;;;;;4932604;29;20384;-88
2022/01/10 02:31:04;;;;;;;23.77;11.00;;;2.20;99.90;;;;;;4932814;29;20051;-88
2022/01/10 02:33:31;;;;;;;22.97;11.37;;;2.20;99.90;;;;;;4933070;29;20036;-88
2022/01/10 02:36:44;;;;;;;26.60;11.00;;;2.20;99.90;;;;;;4917038;29;20403;-88
2022/01/10 02:38:51;;;;;;;24.25;11.55;;;2.20;99.90;;;;;;4907040;29;20107;-88
2022/01/10 02:41:30;;;;;;;24.37;11.23;;;2.20;99.90;;;;;;4932826;29;20032;-89
2022/01/10 02:43:58;;;;;;;27.70;11.77;;;2.20;99.90;;;;;;4932869;29;20024;-89
2022/01/10 02:46:25;;;;;;;28.15;12.48;;;2.10;99.90;;;;;;4932593;29;20051;-88
2022/01/10 02:48:52;;;;;;;24.17;11.07;;;2.10;99.90;;;;;;4932884;29;20044;-88
2022/01/10 02:51:19;;;;;;;24.90;11.17;;;2.10;99.90;;;;;;4932505;29;20400;-88
2022/01/10 02:53:45;;;;;;;23.83;11.00;;;2.20;99.90;;;;;;4932482;29;20032;-89
2022/01/10 02:56:11;;;;;;;24.90;11.03;;;2.10;99.90;;;;;;4932481;29;20036;-90
2022/01/10 02:58:39;;;;;;;23.97;10.73;;;2.10;99.90;;;;;;4916627;29;20024;-89
2022/01/10 03:01:05;;;;;;;28.03;10.90;;;2.10;99.90;;;;;;4932378;29;20492;-88
2022/01/10 03:03:32;;;;;;;27.53;10.70;;;2.10;99.90;;;;;;4932298;29;20060;-89
2022/01/10 03:05:59;;;;;;;24.87;10.80;;;2.10;99.90;;;;;;4932641;29;20079;-88
2022/01/10 03:08:27;;;;;;;27.87;10.67;;;2.10;99.90;;;;;;4932539;29;20036;-89
2022/01/10 03:10:54;;;;;;;25.70;11.20;;;2.10;99.90;;;;;;4932212;29;20055;-89
2022/01/10 03:13:20;;;;;;;26.30;11.30;;;2.10;99.90;;;;;;4916479;29;20033;-88
2022/01/10 03:15:47;;;;;;;25.37;11.07;;;2.10;99.90;;;;;;4932129;29;20036;-88
2022/01/10 03:18:13;;;;;;;23.47;10.97;;;2.20;99.90;;;;;;4932214;29;20024;-89
2022/01/10 03:20:39;;;;;;;28.63;10.77;;;2.20;99.90;;;;;;4932010;29;20039;-89
2022/01/10 03:23:05;;;;;;;25.10;11.17;;;2.20;99.90;;;;;;4932121;29;20407;-89
2022/01/10 03:25:31;;;;;;;29.33;11.23;;;2.20;99.90;;;;;;4932306;29;20055;-89
2022/01/10 03:28:00;;;;;;;22.50;10.50;;;2.20;99.90;;;;;;4931441;29;20086;-89
2022/01/10 03:30:28;;;;;;;21.23;10.40;;;2.20;99.90;;;;;;4931691;29;20095;-89
2022/01/10 03:32:56;;;;;;;21.83;10.60;;;2.20;99.90;;;;;;4931326;29;20398;-88
2022/01/10 03:35:35;;;;;;;28.97;10.87;;;2.20;99.90;;;;;;4930202;29;20063;-89
2022/01/10 03:38:04;;;;;;;20.43;10.43;;;2.40;99.90;;;;;;4931402;29;20028;-89
2022/01/10 03:40:32;;;;;;;22.80;10.43;;;2.40;99.90;;;;;;4931571;29;20036;-88
2022/01/10 03:43:01;;;;;;;;;;;2.30;99.90;;;;;;4931829;29;20028;-89
2022/01/10 03:45:27;;;;;;;21.77;10.73;;;2.30;99.90;;;;;;4931694;29;19934;-88
2022/01/10 03:47:53;;;;;;;24.03;10.03;;;2.30;99.90;;;;;;4916156;29;20031;-88
2022/01/10 03:50:24;;;;;;;27.50;10.53;;;2.30;99.90;;;;;;4931432;29;20119;-89
2022/01/10 03:52:49;;;;;;;23.23;10.10;;;2.20;99.90;;;;;;4931887;29;20063;-89
2022/01/10 03:55:17;;;;;;;22.50;10.70;;;2.20;99.90;;;;;;4931212;29;20115;-89
2022/01/10 03:57:42;;;;;;;26.83;10.63;;;2.20;99.90;;;;;;4931641;29;20080;-88
2022/01/10 04:00:09;;;;;;;25.87;10.53;;;2.10;99.90;;;;;;4931633;29;20032;-88
2022/01/10 04:02:47;;;;;;;24.13;10.67;;;2.20;99.90;;;;;;4930769;29;20490;-89
2022/01/10 04:05:13;;;;;;;25.90;11.07;;;2.20;99.90;;;;;;4931462;29;20059;-88
2022/01/10 04:07:39;;;;;;;23.70;10.07;;;2.30;99.90;;;;;;4931328;29;20055;-88
2022/01/10 04:10:06;;;;;;;24.10;9.83;;;2.30;99.90;;;;;;4931174;29;20036;-88
2022/01/10 04:12:31;;;;;;;22.37;10.20;;;2.20;99.90;;;;;;4931261;29;20114;-88
2022/01/10 04:14:57;;;;;;;23.57;10.33;;;2.20;99.90;;;;;;4931129;29;20086;-88
2022/01/10 04:17:23;;;;;;;24.80;10.50;;;2.20;99.90;;;;;;4931125;29;20099;-88
2022/01/10 04:19:49;;;;;;;24.90;10.03;;;2.20;99.90;;;;;;4931078;29;20127;-88
2022/01/10 04:22:16;;;;;;;21.67;10.67;;;2.10;99.90;;;;;;4931199;29;20028;-89
2022/01/10 04:24:42;;;;;;;29.33;10.73;;;2.10;99.90;;;;;;4931002;29;20080;-90
2022/01/10 04:27:13;;;;;;;23.57;10.23;;;2.10;99.90;;;;;;4930262;29;20084;-88
2022/01/10 04:29:40;;;;;;;21.20;9.90;;;2.10;99.90;;;;;;4930669;29;20036;-89
2022/01/10 04:32:08;;;;;;;24.53;10.20;;;2.10;99.90;;;;;;4930913;29;20063;-88
2022/01/10 04:34:33;;;;;;;23.03;10.87;;;2.20;99.90;;;;;;4930904;29;20087;-88
2022/01/10 04:37:00;;;;;;;23.30;10.43;;;2.20;99.90;;;;;;4930744;29;20032;-88
2022/01/10 04:39:26;;;;;;;23.10;10.20;;;2.20;99.90;;;;;;4930713;29;20039;-89
2022/01/10 04:41:52;;;;;;;24.50;11.00;;;2.20;99.90;;;;;;4930725;29;20495;-88
2022/01/10 04:44:18;;;;;;;25.77;10.17;;;2.20;99.90;;;;;;4914019;29;20491;-88
2022/01/10 04:46:45;;;;;;;27.10;10.23;;;2.20;99.90;;;;;;4930551;29;20032;-89
2022/01/10 04:49:21;;;;;;;24.33;10.07;;;2.10;99.90;;;;;;4930556;29;20051;-88
2022/01/10 04:51:48;;;;;;;25.57;10.90;;;2.10;99.90;;;;;;4930721;29;20104;-88
2022/01/10 04:54:16;;;;;;;21.17;10.50;;;2.00;99.90;;;;;;4930629;29;20411;-88
2022/01/10 04:56:45;;;;;;;22.27;10.57;;;2.00;99.90;;;;;;4930422;29;20095;-88
2022/01/10 04:59:13;;;;;;;23.23;10.43;;;2.10;99.90;;;;;;4930340;29;20066;-88
2022/01/10 05:01:39;;;;;;;33.57;11.57;;;2.00;99.90;;;;;;4930381;29;20024;-89
2022/01/10 05:04:07;;;;;;;24.17;10.20;;;2.00;99.90;;;;;;4930620;29;20052;-88
2022/01/10 05:06:32;;;;;;;26.23;10.93;;;2.00;99.90;;;;;;4930615;29;20428;-89
2022/01/10 05:08:58;;;;;;;25.67;11.23;;;2.00;99.90;;;;;;4930440;29;20063;-88
2022/01/10 05:11:40;;;;;;;26.77;10.33;;;1.90;99.90;;;;;;4914762;29;20036;-89
2022/01/10 05:14:06;;;;;;;25.23;10.80;;;1.90;99.90;;;;;;4930331;29;20107;-89
2022/01/10 05:16:32;;;;;;;27.50;11.73;;;1.90;99.90;;;;;;4930381;29;20450;-89
2022/01/10 05:18:58;;;;;;;30.17;11.53;;;1.90;99.90;;;;;;4930467;29;20115;-88
2022/01/10 05:21:24;;;;;;;26.97;11.33;;;1.90;99.90;;;;;;4930289;29;20028;-88
2022/01/10 05:23:51;;;;;;;30.50;11.23;;;1.90;99.90;;;;;;4914573;29;20055;-89
2022/01/10 05:26:17;;;;;;;27.07;11.23;;;1.90;99.90;;;;;;4930647;29;20032;-88
2022/01/10 05:28:43;;;;;;;25.97;11.10;;;1.80;99.90;;;;;;4930353;29;20037;-88
2022/01/10 05:31:09;;;;;;;23.77;11.10;;;1.80;99.90;;;;;;4930408;29;20119;-88
2022/01/10 05:33:48;;;;;;;24.33;11.70;;;1.90;99.90;;;;;;4928612;29;20029;-88
2022/01/10 05:36:14;;;;;;;26.57;11.40;;;1.90;99.90;;;;;;4930214;29;20111;-89
2022/01/10 05:38:41;;;;;;;24.57;11.37;;;1.80;99.90;;;;;;4929692;29;20399;-88
2022/01/10 05:41:07;;;;;;;26.03;12.30;;;1.80;99.90;;;;;;4915372;29;20129;-89
2022/01/10 05:43:34;;;;;;;25.00;11.03;;;1.80;99.90;;;;;;4930159;29;20031;-89
2022/01/10 05:46:00;;;;;;;25.57;11.20;;;1.80;99.90;;;;;;4930168;29;20119;-88
2022/01/10 05:48:28;;;;;;;22.60;10.67;;;1.80;99.90;;;;;;4929809;29;20032;-89
2022/01/10 05:50:59;;;;;;;26.03;11.10;;;1.80;99.90;;;;;;4929210;29;20032;-89
2022/01/10 05:53:26;;;;;;;27.87;11.10;;;1.80;99.90;;;;;;4930014;29;20064;-88
2022/01/10 05:55:53;;;;;;;28.50;11.10;;;1.80;99.90;;;;;;4931590;29;20094;-88
2022/01/10 05:58:20;;;;;;;27.37;11.40;;;1.80;99.90;;;;;;4917301;29;20120;-89
2022/01/10 06:00:49;;;;;;;25.53;11.57;;;1.70;99.90;;;;;;4933382;29;20063;-89
2022/01/10 06:03:15;;;;;;;31.42;11.23;;;1.80;99.90;;;;;;4918531;29;20391;-89
2022/01/10 06:05:49;;;;;;;28.40;11.40;;;1.80;99.90;;;;;;4933851;29;20091;-88
2022/01/10 06:08:16;;;;;;;23.43;10.43;;;1.80;99.90;;;;;;4934254;29;20043;-88
2022/01/10 06:10:43;;;;;;;25.47;10.37;;;1.90;99.90;;;;;;4933283;29;20067;-88
2022/01/10 06:13:20;;;;;;;27.33;11.07;;;1.90;99.90;;;;;;4932131;29;20032;-88
2022/01/10 06:15:46;;;;;;;23.60;10.80;;;1.90;99.90;;;;;;4933443;29;20043;-89
2022/01/10 06:18:12;;;;;;;21.23;10.30;;;2.00;99.90;;;;;;4933163;29;20115;-88
2022/01/10 06:20:38;;;;;;;25.90;11.17;;;2.00;99.90;;;;;;4933335;29;20119;-89
2022/01/10 06:23:04;;;;;;;25.33;11.17;;;1.90;99.90;;;;;;4933237;29;20024;-89
2022/01/10 06:25:30;;;;;;;27.20;10.80;;;2.00;99.90;;;;;;4933190;29;20055;-89
2022/01/10 06:27:57;;;;;;;28.13;11.37;;;2.10;99.90;;;;;;4916992;29;20118;-89
2022/01/10 06:30:24;;;;;;;28.33;12.90;;;2.00;99.90;;;;;;4932930;29;20499;-89
2022/01/10 06:32:50;;;;;;;25.30;12.00;;;2.00;99.90;;;;;;4933399;29;20140;-89
2022/01/10 06:35:19;;;;;;;28.42;11.93;;;2.10;99.90;;;;;;4932502;29;20032;-89
2022/01/10 06:37:46;;;;;;;26.77;11.50;;;2.10;99.90;;;;;;4932509;29;20032;-89
2022/01/10 06:40:14;;;;;;;28.50;11.93;;;2.10;99.90;;;;;;4932792;29;20029;-88
2022/01/10 06:42:44;;;;;;;30.63;13.03;;;2.20;99.90;;;;;;4916993;29;20303;-89
2022/01/10 06:45:11;;;;;;;28.00;13.23;;;2.10;99.90;;;;;;4932981;29;20052;-89
2022/01/10 06:47:38;;;;;;;27.17;12.43;;;2.10;99.90;;;;;;4932578;29;20028;-89
2022/01/10 06:50:06;;;;;;;30.10;12.67;;;2.10;99.90;;;;;;4932654;29;20399;-89
2022/01/10 06:52:37;;;;;;;28.43;12.67;;;2.10;99.90;;;;;;4932337;29;20024;-88
2022/01/10 06:55:04;;;;;;;31.00;11.63;;;2.10;99.90;;;;;;4932726;29;20039;-88
2022/01/10 06:57:32;;;;;;;26.52;11.95;;;2.10;99.90;;;;;;4932048;29;20330;-89
2022/01/10 07:00:02;;;;;;;27.10;11.87;;;2.10;99.90;;;;;;4932568;29;20131;-89
2022/01/10 07:02:29;;;;;;;30.60;12.32;;;2.10;99.90;;;;;;4932231;29;20028;-88
2022/01/10 07:04:55;;;;;;;31.03;13.07;;;2.00;99.90;;;;;;4916579;29;20032;-89
2022/01/10 07:07:21;;;;;;;28.10;11.80;;;2.00;99.90;;;;;;4931894;29;20394;-88
2022/01/10 07:09:53;;;;;;;29.03;12.37;;;2.00;99.90;;;;;;4932114;29;20444;-88
2022/01/10 07:12:19;;;;;;;30.27;13.53;;;2.10;99.90;;;;;;4932470;29;20028;-89
2022/01/10 07:15:02;;;;;;;27.23;11.27;;;2.00;99.90;;;;;;4930236;29;20040;-89
2022/01/10 07:17:29;;;;;;;25.60;10.93;;;2.00;99.90;;;;;;4932204;29;20476;-88
2022/01/10 07:19:56;;;;;;;31.60;10.83;;;2.00;99.90;;;;;;4931961;29;20095;-88
2022/01/10 07:22:27;;;;;;;27.67;12.30;;;2.00;99.90;;;;;;4931894;29;20395;-88
2022/01/10 07:24:53;;;;;;;25.87;11.17;;;1.90;99.90;;;;;;4932266;29;20080;-88
2022/01/10 07:27:19;;;;;;;27.30;11.37;;;1.90;99.90;;;;;;4932374;29;20028;-88
2022/01/10 07:29:46;;;;;;;28.37;10.90;;;2.00;99.90;;;;;;4931726;29;20063;-88
2022/01/10 07:32:12;;;;;;;28.93;12.47;;;2.00;99.90;;;;;;4933322;29;20099;-88
2022/01/10 07:34:38;;;;;;;30.70;11.97;;;2.00;99.90;;;;;;4932516;29;20455;-88
2022/01/10 07:37:04;;;;;;;25.73;12.10;;;2.00;99.90;;;;;;4941481;29;20078;-89
2022/01/10 07:39:32;;;;;;;23.70;10.93;;;2.00;99.90;;;;;;4931943;29;20036;-89
2022/01/10 07:41:57;;;;;;;24.97;11.23;;;1.90;99.90;;;;;;4933019;29;20168;-88
2022/01/10 07:44:34;;;;;;;27.87;11.40;;;1.90;99.90;;;;;;4936487;29;20372;-88
2022/01/10 07:47:00;;;;;;;27.17;11.50;;;1.90;99.90;;;;;;4933205;29;20433;-88
2022/01/10 07:49:26;;;;;;;30.10;12.10;;;2.00;99.90;;;;;;4931189;29;20028;-88
2022/01/10 07:51:52;;;;;;;23.73;12.13;;;2.00;99.90;;;;;;4931613;29;20527;-88
2022/01/10 07:54:17;;;;;;;36.27;14.10;;;2.00;99.90;;;;;;4931728;29;20135;-88
2022/01/10 07:56:43;;;;;;;28.77;12.67;;;1.90;99.90;;;;;;4931511;29;20120;-88
2022/01/10 07:59:09;;;;;;;28.50;12.40;;;2.00;99.90;;;;;;4931128;29;20498;-88
2022/01/10 08:01:35;;;;;;;36.27;12.97;;;2.10;99.90;;;;;;4915762;29;20036;-89
2022/01/10 08:04:01;;;;;;;30.07;12.00;;;2.00;99.90;;;;;;4931502;29;20054;-89
2022/01/10 08:06:35;;;;;;;26.10;11.70;;;1.90;99.90;;;;;;4931440;29;20034;-88
2022/01/10 08:09:01;;;;;;;31.73;12.30;;;1.90;99.90;;;;;;4915214;29;20062;-88
2022/01/10 08:11:28;;;;;;;28.83;12.73;;;1.90;99.90;;;;;;4931208;29;20449;-89
2022/01/10 08:13:54;;;;;;;29.10;12.90;;;1.90;99.90;;;;;;4931416;29;20123;-88
2022/01/10 08:16:20;;;;;;;24.30;11.60;;;1.90;99.90;;;;;;4915303;29;20054;-88
2022/01/10 08:18:45;;;;;;;28.73;11.80;;;2.00;99.90;;;;;;4930494;29;20483;-88
2022/01/10 08:21:13;;;;;;;22.47;11.07;;;2.10;99.90;;;;;;4930844;29;20036;-88
2022/01/10 08:23:39;;;;;;;26.10;11.97;;;2.10;99.90;;;;;;4915594;29;20428;-88
2022/01/10 08:26:08;;;;;;;29.13;11.77;;;2.20;99.90;;;;;;4915535;29;20032;-89
2022/01/10 08:28:35;;;;;;;28.88;12.07;;;2.30;99.90;;;;;;4930890;29;20032;-88
2022/01/10 08:31:01;;;;;;;29.63;12.80;;;2.30;99.90;;;;;;4930866;29;20233;-88
2022/01/10 08:33:26;;;;;;;34.00;14.27;;;2.40;99.90;;;;;;4930927;29;20040;-88
2022/01/10 08:35:52;;;;;;;32.77;12.90;;;2.40;99.90;;;;;;4930971;29;20047;-88
2022/01/10 08:38:19;;;;;;;30.50;12.47;;;2.40;99.90;;;;;;4930699;29;20035;-88
2022/01/10 08:40:45;;;;;;;32.17;13.07;;;2.40;99.90;;;;;;4930725;29;20368;-88
2022/01/10 08:43:10;;;;;;;29.20;12.80;;;2.40;99.90;;;;;;4916334;29;20023;-89
2022/01/10 08:45:40;;;;;;;32.93;13.53;;;2.40;99.90;;;;;;4930961;29;20083;-88
2022/01/10 08:48:07;;;;;;;30.00;12.93;;;2.40;99.90;;;;;;4930407;29;20036;-88
2022/01/10 08:50:34;;;;;;;25.00;11.90;;;2.50;99.90;;;;;;4914791;29;20119;-88
2022/01/10 08:53:07;;;;;;;27.73;11.73;;;2.50;99.90;;;;;;4930638;29;20062;-88
2022/01/10 08:55:32;;;;;;;32.93;11.60;;;2.60;99.90;;;;;;4930734;29;20040;-88
2022/01/10 08:57:59;;;;;;;25.53;11.37;;;2.60;99.90;;;;;;4930296;29;20025;-88
2022/01/10 09:00:26;;;;;;;24.93;11.90;;;2.60;99.90;;;;;;4930672;29;20036;-89
2022/01/10 09:02:52;;;;;;;24.90;11.63;;;2.70;99.90;;;;;;4930789;29;20103;-88
2022/01/10 09:05:17;;;;;;;26.50;11.33;;;2.70;99.90;;;;;;4914876;29;20316;-89
2022/01/10 09:07:44;;;;;;;27.43;11.47;;;2.70;99.90;;;;;;4930315;29;20028;-88
2022/01/10 09:10:10;;;;;;;27.93;12.03;;;2.70;99.90;;;;;;4930418;29;20028;-88
2022/01/10 09:12:37;;;;;;;28.33;12.27;;;2.80;99.90;;;;;;4930599;29;20078;-89
2022/01/10 09:15:03;;;;;;;27.17;12.10;;;2.80;99.90;;;;;;4930620;29;20025;-88
2022/01/10 09:17:29;;;;;;;28.57;11.77;;;2.80;99.90;;;;;;4930069;29;20040;-88
2022/01/10 09:19:55;;;;;;;22.30;11.07;;;2.80;99.90;;;;;;4914514;29;20071;-89
2022/01/10 09:22:20;;;;;;;27.47;11.63;;;2.80;99.90;;;;;;4930597;29;20039;-89
2022/01/10 09:24:46;;;;;;;28.30;12.10;;;2.90;99.90;;;;;;4930603;29;20047;-88
2022/01/10 09:27:14;;;;;;;30.40;12.13;;;2.90;99.90;;;;;;4914713;29;20036;-87
2022/01/10 09:29:40;;;;;;;28.17;12.10;;;2.90;99.90;;;;;;4930049;29;20028;-87
2022/01/10 09:32:08;;;;;;;27.73;11.97;;;2.90;99.90;;;;;;4934043;29;20131;-88
2022/01/10 09:34:34;;;;;;;30.97;12.20;;;2.90;99.90;;;;;;4934023;29;20028;-89
2022/01/10 09:36:59;;;;;;;29.83;12.00;;;3.00;99.90;;;;;;4918374;29;20047;-88
2022/01/10 09:39:25;;;;;;;27.83;12.03;;;3.00;99.90;;;;;;4933929;29;20032;-88
2022/01/10 09:41:51;;;;;;;25.33;12.13;;;3.00;99.90;;;;;;4933996;29;20075;-89
2022/01/10 09:44:18;;;;;;;26.67;12.10;;;3.10;99.90;;;;;;4918371;29;20428;-89
2022/01/10 09:46:47;;;;;;;26.87;11.50;;;3.10;99.90;;;;;;4933889;29;20039;-88
2022/01/10 09:49:13;;;;;;;;;;;3.10;99.90;;;;;;4933635;29;20067;-89
2022/01/10 09:51:39;;;;;;;28.07;11.07;;;3.10;99.90;;;;;;4933904;29;19917;-89
2022/01/10 09:54:05;;;;;;;28.23;11.90;;;3.10;99.90;;;;;;4933846;29;20036;-88
2022/01/10 09:56:32;;;;;;;29.93;13.27;;;3.10;99.90;;;;;;4918135;29;20115;-88
2022/01/10 09:58:59;;;;;;;29.00;12.20;;;3.10;99.90;;;;;;4917508;29;20099;-88
2022/01/10 10:01:26;;;;;;;32.43;13.10;;;3.10;99.90;;;;;;4917648;29;20032;-89
2022/01/10 10:03:58;;;;;;;27.83;13.03;;;3.10;99.90;;;;;;4918831;29;20040;-89
2022/01/10 10:06:28;;;;;;;29.83;12.80;;;3.20;99.90;;;;;;4933845;29;20123;-89
2022/01/10 10:09:08;;;;;;;32.03;12.93;;;3.20;99.90;;;;;;4933318;29;20046;-88
2022/01/10 10:11:46;;;;;;;31.10;13.30;;;3.20;99.90;;;;;;4933498;29;20040;-89
2022/01/10 10:14:15;;;;;;;27.37;12.13;;;3.30;99.90;;;;;;4933406;29;20407;-88
2022/01/10 10:16:48;;;;;;;32.65;13.10;;;3.30;99.90;;;;;;4917468;29;20095;-89
2022/01/10 10:19:20;;;;;;;30.30;12.03;;;3.30;99.90;;;;;;4932871;29;20051;-89
2022/01/10 10:21:46;;;;;;;29.47;13.30;;;3.40;99.90;;;;;;4917380;29;20124;-89
2022/01/10 10:24:13;;;;;;;32.57;12.77;;;3.40;99.90;;;;;;4933543;29;20047;-89
2022/01/10 10:26:39;;;;;;;30.63;12.50;;;3.40;99.90;;;;;;4933261;29;20028;-89
2022/01/10 10:29:05;;;;;;;26.10;12.63;;;3.40;99.90;;;;;;4932918;29;20047;-89
2022/01/10 10:31:41;;;;;;;29.07;13.03;;;3.50;99.90;;;;;;4932910;29;20036;-89
2022/01/10 10:34:07;;;;;;;34.87;12.93;;;3.60;99.90;;;;;;4932998;29;20040;-89
2022/01/10 10:36:36;;;;;;;34.50;12.90;;;3.60;99.90;;;;;;4933038;29;20052;-89
2022/01/10 10:39:10;;;;;;;27.60;13.17;;;3.70;99.90;;;;;;4932386;29;20129;-89
2022/01/10 10:41:37;;;;;;;31.57;12.37;;;3.70;99.90;;;;;;4916974;29;20444;-89
2022/01/10 10:44:04;;;;;;;35.33;13.67;;;3.80;99.90;;;;;;4932959;29;20099;-89
2022/01/10 10:46:30;;;;;;;32.90;12.40;;;3.80;99.90;;;;;;4933038;29;20046;-89
2022/01/10 10:49:04;;;;;;;31.70;13.37;;;3.80;99.90;;;;;;4932686;29;20134;-89
2022/01/10 10:51:35;;;;;;;29.33;12.40;;;3.80;99.90;;;;;;4932934;29;20100;-89
2022/01/10 10:54:06;;;;;;;31.17;12.67;;;3.90;99.90;;;;;;4917453;29;20071;-89
2022/01/10 10:56:40;;;;;;;23.50;11.97;;;3.90;99.90;;;;;;4917335;29;20035;-89
2022/01/10 10:59:07;;;;;;;33.63;13.83;;;4.00;99.90;;;;;;4932197;29;20040;-89
2022/01/10 11:01:37;;;;;;;32.60;13.57;;;4.00;99.90;;;;;;4932509;29;20115;-89
2022/01/10 11:04:04;;;;;;;26.30;12.40;;;4.00;99.90;;;;;;4932611;29;20060;-89
2022/01/10 11:06:34;;;;;;;33.53;12.97;;;4.10;99.90;;;;;;4916800;29;20462;-88
2022/01/10 11:09:03;;;;;;;30.70;13.47;;;4.10;99.90;;;;;;4932146;29;20169;-89
2022/01/10 11:11:30;;;;;;;40.22;13.90;;;4.20;99.90;;;;;;4932832;29;20261;-89
2022/01/10 11:13:58;;;;;;;29.60;13.57;;;4.20;99.90;;;;;;4932494;29;20063;-89
2022/01/10 11:16:25;;;;;;;32.13;13.60;;;4.20;99.90;;;;;;4932479;29;20127;-89
2022/01/10 11:18:51;;;;;;;29.80;13.07;;;4.20;99.90;;;;;;4916361;29;20028;-89
2022/01/10 11:21:17;;;;;;;31.97;13.43;;;4.30;99.90;;;;;;4932075;29;20059;-89
2022/01/10 11:23:46;;;;;;;27.77;13.03;;;4.30;99.90;;;;;;4932474;29;20467;-89
2022/01/10 11:26:13;;;;;;;32.65;13.45;;;4.30;99.90;;;;;;4932178;29;20081;-89
2022/01/10 11:28:48;;;;;;;32.93;13.40;;;4.30;99.90;;;;;;4931970;29;20044;-89
2022/01/10 11:31:20;;;;;;;33.27;13.60;;;4.40;99.90;;;;;;5040077;23;20047;-90
2022/01/10 11:33:47;;;;;;;27.97;13.50;;;4.40;99.90;;;;;;4940829;29;20035;-89
2022/01/10 11:36:13;;;;;;;27.60;12.87;;;4.40;99.90;;;;;;4939545;29;20121;-89
2022/01/10 11:38:52;;;;;;;30.77;13.57;;;4.50;99.90;;;;;;4939001;29;20118;-89
2022/01/10 11:41:20;;;;;;;29.37;12.47;;;4.50;99.90;;;;;;4940947;29;20035;-90
2022/01/10 11:43:46;;;;;;;28.70;12.80;;;4.50;99.90;;;;;;4942824;29;20034;-89
2022/01/10 11:46:19;;;;;;;27.63;12.10;;;4.50;99.90;;;;;;4959328;29;20042;-89
2022/01/10 11:49:00;;;;;;;33.63;11.83;;;4.50;99.90;;;;;;4958555;29;20036;-89
2022/01/10 11:51:49;;;;;;;27.17;12.10;;;4.60;99.90;;;;;;4957145;29;20067;-89
2022/01/10 11:54:41;;;;;;;32.58;12.43;;;4.60;99.90;;;;;;4955268;28;20042;-90
2022/01/10 11:57:12;;;;;;;26.20;12.13;;;4.60;99.90;;;;;;4940511;29;20043;-89
2022/01/10 11:59:43;;;;;;;31.20;11.77;;;4.70;99.90;;;;;;4956138;28;20077;-89
2022/01/10 12:02:14;;;;;;;25.60;11.13;;;4.70;99.90;;;;;;4956105;28;20036;-89
2022/01/10 12:05:02;;;;;;;31.10;12.30;;;4.70;99.90;;;;;;4954264;29;20038;-89
2022/01/10 12:07:28;;;;;;;33.00;13.43;;;4.70;99.90;;;;;;4937483;29;20089;-90
2022/01/10 12:09:54;;;;;;;39.27;13.17;;;4.70;99.90;;;;;;4953462;28;20035;-89
2022/01/10 12:12:24;;;;;;;34.50;12.70;;;4.70;99.90;;;;;;4953452;28;20478;-89
2022/01/10 12:14:52;;;;;;;33.97;13.30;;;4.70;99.90;;;;;;4953554;29;20042;-89
2022/01/10 12:17:18;;;;;;;31.20;12.97;;;4.80;99.90;;;;;;4937293;29;20505;-90
2022/01/10 12:19:44;;;;;;;28.00;12.80;;;4.80;99.90;;;;;;4952967;28;20024;-89
2022/01/10 12:22:10;;;;;;;27.47;12.30;;;4.80;99.90;;;;;;4953391;28;20034;-89
2022/01/10 12:24:39;;;;;;;30.70;13.07;;;4.90;99.90;;;;;;4953372;28;20027;-89
2022/01/10 12:27:07;;;;;;;34.30;13.70;;;4.90;99.90;;;;;;4953463;28;20023;-89
2022/01/10 12:29:34;;;;;;;27.13;11.93;;;4.90;99.90;;;;;;4953038;28;20138;-89
2022/01/10 12:32:01;;;;;;;27.40;12.60;;;4.90;99.90;;;;;;4953153;28;20118;-89
2022/01/10 12:34:27;;;;;;;29.77;13.00;;;4.90;99.90;;;;;;4953379;28;20063;-89
2022/01/10 12:36:53;;;;;;;26.97;11.73;;;4.90;99.90;;;;;;4954572;29;20027;-89
2022/01/10 12:39:25;;;;;;;27.50;13.43;;;4.90;99.90;;;;;;4952883;28;20086;-89
2022/01/10 12:41:53;;;;;;;30.63;13.63;;;4.90;99.90;;;;;;4953131;29;20035;-89
2022/01/10 12:44:19;;;;;;;34.23;14.67;;;5.00;99.90;;;;;;4953096;28;20115;-89
2022/01/10 12:46:45;;;;;;;30.80;13.50;;;5.00;99.90;;;;;;4953102;29;20031;-89
2022/01/10 12:49:14;;;;;;;38.50;12.00;;;5.00;99.90;;;;;;4952763;28;20082;-89
2022/01/10 12:51:43;;;;;;;30.83;12.17;;;5.00;99.90;;;;;;4952815;29;20039;-89
2022/01/10 12:54:18;;;;;;;25.85;11.70;;;5.00;99.90;;;;;;4953124;29;20046;-90
2022/01/10 12:56:44;;;;;;;25.87;11.27;;;5.10;99.90;;;;;;4952794;29;20050;-89